Portada
METAR-TAF:

METAR-TAF

Aeroports :

Subang Jaya, Malàisia

latitud: 03-07N, longitud: 101-32E, altitud: 27 m

Observació

L'informe es va fer fa 1 hora i 6 minuts, a les 13:00 UTC
Vent 2 kt amb direcció variable
Temperatura 29°C
Humitat 79%
Pressió 1007 hPa
Visibilitat 10 km o més
Escasses núvols a una alçada de 2600 ft

METAR: WMSA 141300Z VRB02KT 9999 FEW026 29/25 Q1007

Hora: 22:06 (14:06 UTC)

Pronòstic

L'informe es va fer fa 3 hores i 6 minuts, a les 11:00 UTC
Pronòstic vàlid del 14 a les 12 UTC al 15 a les 12 UTC
Vent 2 kt amb direcció variable
Visibilitat 10 km o més
Escasses núvols a una alçada de 2600 ft
Probabilitat 30% :
Temporalment
l' 15 a les 07 UTC al 15 a les 12 UTC
Visibilitat: 5000 m
Escasses núvols a una alçada de 1700 ft, Cumulonimbus.
Núvols disperses a una alçada de 1800 ft
tempesta, pluja

TAF: WMSA 141100Z 1412/1512 VRB02KT 9999 FEW026 PROB30 TEMPO 1507/1512 5000 TSRA FEW017CB SCT018

Observacions i pronòstics meteorològics de més de 4000 aeroports (METAR i TAF).

Les estacions disponibles són els punts grocs i vermells al mapa.

Posi el ratolí al punt desitjat per veure el nom de l'estació.

Feu clic per veure les observacions i els pronòstics meteorològics.

Per canviar el mapa: feu clic els botons verds amb una creu de color negre per apropar; al botó verd amb un guió per allunyar la imatge; o en les fletxes verdes per a mapes adjacents.


METAR-TAF: